KMGE/MGE METAR and TAF weather

Enter ICAO airport designator
Station Type Date Time Source
KMGE METAR 2021/06/22 21:56 UTC NOAA

KMGE 222156Z 34006KT 10SM FEW045 BKN250 26/16 A2996 RMK AO2A SLP137 T02550155 $


Station Type Date Time Source
KMGE Decoded METAR 2021/06/22 21:56 UTC NOAA

Marietta / Dobbins Air Force Base, GA, United States (KMGE) 33-55N 084-31W 326M
Jun 22, 2021 - 05:56 PM EDT / 2021.06.22 2156 UTC
Wind: from the NNW (340 degrees) at 7 MPH (6 KT):0
Visibility: 10 mile(s):0
Sky conditions: mostly cloudy
Temperature: 77.9 F (25.5 C)
Dew Point: 59.9 F (15.5 C)
Relative Humidity: 53%
Pressure (altimeter): 29.96 in. Hg (1014 hPa)
ob: KMGE 222156Z 34006KT 10SM FEW045 BKN250 26/16 A2996 RMK AO2A SLP137 T02550155
cycle: 22

Station Type Date Time Source
KMGE TAF 2021/06/22 21:15 UTC NOAA

TAF KMGE 222105Z 2221/2403 30010G15KT 9999 SCT040 BKN250 QNH2992INS
BECMG 2222/2223 32008KT 9999 FEW040 SCT250 QNH2994INS
BECMG 2300/2301 34005KT 9999 FEW250 QNH2996INS WND 06005KT AFT 2312
BECMG 2315/2316 09010G15KT 9999 FEW030 FEW250 QNH3008INS TX28/2321Z TN15/2311Z

Example: see airport list